Mcbride, Canada
Current Conditions -  °F | °C
As of 4:00 PM on Friday 24 Oct 2014 (Local Time) from CYQZ Reporting Station
Clear Clear  
Wind Chill: 50°   Ceiling: Unl
Heat Index: 50°   Visibility: 9mi
Dew Point: 36°   Wind: 9mph
Humidity: 58%   Direction: 140°SE
Pressure: 30"   Gusts: NA
Location:  53.3°N, 120.17°W
Report Text: CYQZ 242300Z AUTO 14008KT 9SM CLR 10/02 A3000 RMK SLP177
Loading
Personal Weather Stations






























Interactive Weather Map New forecast layout! Learn more

10-Day Weather Forecast

Advertisements
Track Severe Weather on mobile